createdAt,value
2019-02-16T00:00:23.890Z,11.28
2019-02-16T00:02:52.412Z,10.30
2019-02-16T00:05:21.585Z,8.55
2019-02-16T00:07:49.849Z,9.30
2019-02-16T00:10:18.439Z,9.58
2019-02-16T00:12:47.564Z,9.88
2019-02-16T00:15:16.249Z,11.55
2019-02-16T00:17:44.642Z,10.90
2019-02-16T00:20:13.146Z,11.35
2019-02-16T00:22:41.818Z,9.03
2019-02-16T00:25:10.166Z,10.75
2019-02-16T00:27:38.484Z,9.00
2019-02-16T00:30:09.826Z,10.90
2019-02-16T00:32:39.498Z,11.25
2019-02-16T00:35:07.745Z,10.68
2019-02-16T00:37:36.322Z,10.18
2019-02-16T00:40:07.082Z,9.93
2019-02-16T00:42:37.645Z,13.50
2019-02-16T00:45:07.232Z,11.48
2019-02-16T00:47:35.734Z,13.88
2019-02-16T00:50:05.005Z,7.70
2019-02-16T00:52:33.299Z,8.63
2019-02-16T00:55:01.874Z,15.68
2019-02-16T00:57:30.385Z,10.10
2019-02-16T00:59:59.790Z,12.60
2019-02-16T01:02:28.182Z,13.08
2019-02-16T01:04:59.321Z,10.38
2019-02-16T01:07:27.562Z,9.03
2019-02-16T01:09:56.651Z,11.12
2019-02-16T01:12:24.879Z,14.05
2019-02-16T01:14:54.982Z,10.35
2019-02-16T01:17:23.837Z,10.05
2019-02-16T01:19:52.077Z,8.53
2019-02-16T01:22:20.321Z,11.75
2019-02-16T01:24:49.479Z,13.40
2019-02-16T01:27:17.702Z,13.03
2019-02-16T01:29:46.055Z,11.03
2019-02-16T01:32:15.049Z,8.38
2019-02-16T01:34:43.300Z,11.73
2019-02-16T01:37:15.208Z,11.48
2019-02-16T01:39:43.653Z,14.53
2019-02-16T01:42:11.906Z,11.15
2019-02-16T01:44:40.457Z,12.50
2019-02-16T01:47:08.890Z,12.50
2019-02-16T01:49:38.174Z,9.23
2019-02-16T01:52:07.115Z,10.48
2019-02-16T01:54:35.683Z,14.63
2019-02-16T01:57:03.905Z,11.28
2019-02-16T01:59:32.554Z,12.07
2019-02-16T02:02:02.986Z,9.18
2019-02-16T02:04:31.217Z,11.60
2019-02-16T02:06:59.466Z,12.63
2019-02-16T02:09:28.979Z,10.40
2019-02-16T02:11:57.909Z,11.35
2019-02-16T02:14:27.354Z,12.90
2019-02-16T02:16:56.613Z,9.80
2019-02-16T02:19:24.836Z,10.88
2019-02-16T02:21:55.783Z,13.90
2019-02-16T02:24:24.297Z,11.45
2019-02-16T02:26:52.615Z,12.70
2019-02-16T02:29:20.869Z,12.13
2019-02-16T02:31:49.668Z,12.28
2019-02-16T02:34:18.469Z,13.48
2019-02-16T02:36:46.721Z,16.32
2019-02-16T02:39:15.047Z,14.63
2019-02-16T02:41:43.283Z,19.12
2019-02-16T02:44:11.513Z,17.67
2019-02-16T02:46:40.475Z,17.87
2019-02-16T02:49:08.710Z,18.73
2019-02-16T02:51:36.947Z,19.48
2019-02-16T02:54:05.172Z,12.78
2019-02-16T02:56:33.865Z,14.65
2019-02-16T02:59:02.135Z,11.10
2019-02-16T03:01:30.383Z,12.58
2019-02-16T03:03:59.210Z,13.48
2019-02-16T03:06:28.227Z,10.15
2019-02-16T03:09:00.507Z,13.05
2019-02-16T03:11:29.264Z,11.35
2019-02-16T03:13:57.574Z,11.00
2019-02-16T03:16:26.261Z,13.98
2019-02-16T03:18:56.632Z,11.70
2019-02-16T03:21:24.894Z,11.40
2019-02-16T03:23:53.228Z,12.45
2019-02-16T03:26:40.691Z,11.68
2019-02-16T03:29:27.326Z,11.83
2019-02-16T03:32:01.793Z,13.38
2019-02-16T03:34:33.302Z,10.13
2019-02-16T03:37:38.254Z,10.10
2019-02-16T03:40:09.165Z,12.28
2019-02-16T03:42:37.432Z,9.88
2019-02-16T03:45:06.705Z,13.65
2019-02-16T03:47:35.030Z,14.60
2019-02-16T03:50:04.809Z,12.25
2019-02-16T03:52:35.098Z,12.78
2019-02-16T03:55:04.329Z,11.45
2019-02-16T03:57:32.586Z,13.08
2019-02-16T04:00:01.046Z,11.18
2019-02-16T04:02:29.340Z,12.68
2019-02-16T04:04:59.638Z,13.18
2019-02-16T04:07:28.249Z,11.70
2019-02-16T04:09:56.667Z,10.78
2019-02-16T04:12:25.263Z,12.05
2019-02-16T04:14:53.878Z,12.35
2019-02-16T04:17:22.109Z,14.38
2019-02-16T04:19:52.001Z,13.10
2019-02-16T04:22:24.610Z,10.93
2019-02-16T04:24:50.509Z,11.73
2019-02-16T04:27:18.729Z,13.83
2019-02-16T04:29:47.242Z,11.85
2019-02-16T04:32:15.552Z,13.50
2019-02-16T04:34:44.351Z,11.22
2019-02-16T04:37:12.809Z,10.43
2019-02-16T04:39:41.077Z,14.03
2019-02-16T04:42:09.342Z,12.93
2019-02-16T04:44:38.446Z,14.03
2019-02-16T04:47:06.741Z,12.35
2019-02-16T04:49:35.011Z,15.85
2019-02-16T04:52:03.677Z,11.80
2019-02-16T04:54:31.924Z,13.13
2019-02-16T04:57:00.196Z,11.95
2019-02-16T04:59:28.529Z,14.00
2019-02-16T05:01:56.742Z,11.18
2019-02-16T05:04:25.011Z,13.85
2019-02-16T05:06:53.553Z,11.97
2019-02-16T05:09:21.806Z,10.23
2019-02-16T05:11:50.322Z,15.38
2019-02-16T05:14:18.746Z,15.00
2019-02-16T05:16:48.889Z,15.20
2019-02-16T05:19:17.098Z,11.95
2019-02-16T05:21:47.311Z,12.25
2019-02-16T05:24:15.547Z,13.10
2019-02-16T05:26:44.633Z,13.35
2019-02-16T05:29:16.402Z,11.28
2019-02-16T05:31:44.635Z,11.73
2019-02-16T05:34:12.849Z,12.60
2019-02-16T05:36:42.412Z,12.68
2019-02-16T05:39:10.654Z,12.75
2019-02-16T05:41:38.895Z,12.18
2019-02-16T05:44:08.979Z,14.38
2019-02-16T05:46:37.400Z,13.45
2019-02-16T05:49:05.796Z,18.30
2019-02-16T05:51:35.440Z,13.13
2019-02-16T05:54:03.775Z,14.95
2019-02-16T05:56:32.109Z,16.30
2019-02-16T05:59:00.700Z,17.65
2019-02-16T06:01:29.819Z,14.63
2019-02-16T06:03:58.167Z,14.25
2019-02-16T06:06:27.191Z,16.10
2019-02-16T06:08:56.463Z,15.30
2019-02-16T06:11:25.733Z,17.62
2019-02-16T06:13:54.531Z,17.35
2019-02-16T06:16:24.211Z,13.83
2019-02-16T06:18:52.536Z,14.20
2019-02-16T06:21:21.738Z,13.03
2019-02-16T06:23:50.138Z,13.35
2019-02-16T06:26:18.470Z,14.28
2019-02-16T06:28:47.782Z,15.15
2019-02-16T06:31:16.216Z,15.80
2019-02-16T06:33:44.462Z,18.92
2019-02-16T06:36:15.271Z,15.20
2019-02-16T06:38:43.614Z,17.05
2019-02-16T06:41:11.865Z,17.67
2019-02-16T06:43:43.811Z,17.12
2019-02-16T06:46:12.206Z,17.17
2019-02-16T06:48:40.441Z,16.25
2019-02-16T06:51:10.834Z,16.17
2019-02-16T06:53:39.243Z,19.42
2019-02-16T06:56:09.338Z,14.87
2019-02-16T06:58:38.375Z,18.02
2019-02-16T07:01:06.782Z,16.77
2019-02-16T07:03:35.272Z,15.75
2019-02-16T07:06:03.643Z,17.20
2019-02-16T07:08:32.761Z,15.85
2019-02-16T07:11:01.105Z,14.83
2019-02-16T07:13:29.464Z,21.35
2019-02-16T07:16:16.059Z,18.90
2019-02-16T07:18:46.822Z,17.20
2019-02-16T07:21:17.780Z,19.85
2019-02-16T07:23:46.907Z,15.65
2019-02-16T07:26:25.506Z,20.95
2019-02-16T07:28:53.734Z,17.25
2019-02-16T07:31:21.993Z,16.52
2019-02-16T07:33:55.745Z,16.25
2019-02-16T07:36:24.005Z,16.85
2019-02-16T07:38:53.102Z,17.50
2019-02-16T07:41:21.322Z,16.37
2019-02-16T07:43:51.307Z,15.23
2019-02-16T07:46:27.863Z,12.73
2019-02-16T07:49:06.469Z,16.52
2019-02-16T07:51:45.453Z,17.65
2019-02-16T07:54:18.194Z,15.18
2019-02-16T07:56:49.953Z,13.70
2019-02-16T07:59:19.926Z,16.65
2019-02-16T08:01:56.666Z,15.83
2019-02-16T08:04:38.439Z,17.30
2019-02-16T08:07:25.239Z,14.75
2019-02-16T08:10:01.187Z,15.05
2019-02-16T08:12:31.523Z,14.58
2019-02-16T08:17:55.723Z,15.25
2019-02-16T08:20:25.718Z,13.65
2019-02-16T08:23:07.823Z,13.40
2019-02-16T08:25:52.693Z,12.07
2019-02-16T08:28:29.145Z,15.90
2019-02-16T08:31:01.901Z,16.07
2019-02-16T08:33:38.123Z,15.85
2019-02-16T08:36:24.616Z,15.50
2019-02-16T08:39:04.562Z,14.58
2019-02-16T08:41:50.585Z,15.05
2019-02-16T08:44:23.626Z,16.62
2019-02-16T08:47:12.445Z,16.05
2019-02-16T08:49:48.626Z,16.67
2019-02-16T08:52:18.519Z,16.82
2019-02-16T08:54:48.486Z,17.32
2019-02-16T08:57:24.902Z,13.08
2019-02-16T09:00:06.608Z,14.70
2019-02-16T09:02:42.874Z,16.42
2019-02-16T09:05:28.411Z,15.78
2019-02-16T09:08:09.146Z,14.87
2019-02-16T09:10:43.207Z,15.28
2019-02-16T09:13:13.424Z,14.85
2019-02-16T09:15:43.640Z,19.32
2019-02-16T09:18:29.490Z,17.50
2019-02-16T09:21:14.819Z,14.13
2019-02-16T09:23:59.787Z,13.70
2019-02-16T09:26:53.608Z,12.50
2019-02-16T09:29:26.563Z,19.12
2019-02-16T09:32:03.929Z,11.83
2019-02-16T09:34:36.350Z,14.07
2019-02-16T09:37:17.921Z,13.55
2019-02-16T09:40:06.065Z,15.25
2019-02-16T09:42:36.758Z,15.08
2019-02-16T09:45:25.422Z,28.70
2019-02-16T09:48:09.610Z,15.83
2019-02-16T09:50:40.632Z,16.75
2019-02-16T09:53:28.529Z,14.00
2019-02-16T09:55:59.809Z,14.33
2019-02-16T09:58:38.510Z,13.72
2019-02-16T10:01:08.388Z,18.80
2019-02-16T10:03:57.822Z,13.13
2019-02-16T10:06:39.722Z,15.50
2019-02-16T10:09:21.727Z,16.05
2019-02-16T10:12:00.595Z,14.95
2019-02-16T10:14:35.061Z,14.10
2019-02-16T10:17:04.978Z,16.70
2019-02-16T10:19:38.477Z,15.95
2019-02-16T10:22:10.979Z,15.68
2019-02-16T10:24:56.336Z,13.85
2019-02-16T10:27:26.218Z,14.25
2019-02-16T10:30:01.960Z,16.02
2019-02-16T10:32:44.851Z,16.93
2019-02-16T10:35:15.946Z,19.75
2019-02-16T10:37:52.052Z,17.53
2019-02-16T10:40:25.341Z,15.23
2019-02-16T10:43:01.377Z,18.05
2019-02-16T10:48:21.592Z,18.98
2019-02-16T10:51:02.642Z,17.32
2019-02-16T10:53:35.865Z,15.32
2019-02-16T10:56:18.941Z,20.95
2019-02-16T10:59:12.027Z,17.65
2019-02-16T11:02:00.431Z,17.65
2019-02-16T11:04:38.113Z,17.25
2019-02-16T11:07:03.911Z,15.05
2019-02-16T11:09:41.698Z,16.48
2019-02-16T11:12:13.246Z,18.65
2019-02-16T11:14:59.048Z,17.50
2019-02-16T11:17:30.290Z,16.37
2019-02-16T11:20:00.290Z,17.42
2019-02-16T11:22:41.385Z,18.17
2019-02-16T11:25:12.622Z,18.97
2019-02-16T11:27:42.780Z,16.17
2019-02-16T11:30:15.413Z,16.97
2019-02-16T11:32:45.777Z,27.67
2019-02-16T11:35:18.602Z,19.00
2019-02-16T11:38:03.941Z,22.65
2019-02-16T11:40:35.535Z,21.75
2019-02-16T11:45:58.106Z,21.80
2019-02-16T11:48:35.380Z,21.87
2019-02-16T11:51:21.772Z,19.90
2019-02-16T11:54:12.319Z,20.52
2019-02-16T11:56:51.011Z,22.93
2019-02-16T11:59:24.166Z,24.23
2019-02-16T12:01:55.892Z,22.95
2019-02-16T12:04:26.133Z,20.02
2019-02-16T12:07:00.255Z,26.65
2019-02-16T12:09:36.322Z,28.00
2019-02-16T12:12:24.036Z,24.23
2019-02-16T12:15:02.881Z,21.60
2019-02-16T12:17:42.641Z,19.82
2019-02-16T12:20:15.530Z,26.35
2019-02-16T12:22:47.350Z,22.45
2019-02-16T12:27:53.052Z,18.20
2019-02-16T12:30:45.564Z,22.80
2019-02-16T12:33:19.413Z,21.10
2019-02-16T12:36:06.474Z,20.45
2019-02-16T12:38:42.959Z,24.60
2019-02-16T12:41:21.663Z,23.98
2019-02-16T12:43:57.800Z,22.93
2019-02-16T12:46:33.690Z,21.55
2019-02-16T12:49:21.195Z,25.60
2019-02-16T12:52:07.106Z,23.40
2019-02-16T12:54:45.430Z,24.32
2019-02-16T12:57:18.156Z,23.45
2019-02-16T13:00:04.899Z,31.07
2019-02-16T13:02:34.835Z,33.98
2019-02-16T13:05:04.862Z,24.37
2019-02-16T13:07:40.870Z,24.72
2019-02-16T13:10:10.798Z,26.27
2019-02-16T13:12:41.360Z,23.00
2019-02-16T13:15:20.596Z,26.52
2019-02-16T13:17:59.494Z,25.12
2019-02-16T13:20:37.829Z,27.15
2019-02-16T13:23:07.715Z,25.12
2019-02-16T13:25:37.652Z,27.30
2019-02-16T13:28:10.099Z,24.45
2019-02-16T13:30:44.389Z,25.72
2019-02-16T13:33:16.937Z,27.67
2019-02-16T13:35:49.618Z,29.42
2019-02-16T13:38:23.314Z,28.52
2019-02-16T13:40:53.202Z,27.32
2019-02-16T13:43:23.088Z,28.65
2019-02-16T13:46:02.890Z,24.57
2019-02-16T13:48:32.787Z,29.72
2019-02-16T13:51:05.668Z,24.52
2019-02-16T13:53:48.622Z,24.50
2019-02-16T13:56:36.487Z,30.20
2019-02-16T13:59:16.032Z,24.07
2019-02-16T14:02:02.742Z,27.62
2019-02-16T14:04:35.728Z,26.33
2019-02-16T14:07:15.434Z,25.92
2019-02-16T14:09:45.335Z,33.35
2019-02-16T14:12:21.218Z,36.13
2019-02-16T14:14:59.850Z,30.25
2019-02-16T14:20:19.738Z,26.90
2019-02-16T14:22:47.992Z,27.25
2019-02-16T14:25:17.898Z,25.60
2019-02-16T14:27:47.459Z,24.70
2019-02-16T14:30:15.712Z,28.10
2019-02-16T14:32:43.950Z,29.02
2019-02-16T14:35:12.201Z,27.22
2019-02-16T14:37:49.440Z,28.05
2019-02-16T14:40:17.682Z,33.80
2019-02-16T14:42:45.938Z,43.95
2019-02-16T14:45:15.576Z,49.90
2019-02-16T14:47:44.185Z,22.70
2019-02-16T14:50:12.542Z,26.12
2019-02-16T14:52:42.121Z,25.60
2019-02-16T14:55:13.611Z,27.87
2019-02-16T14:57:41.878Z,26.40
2019-02-16T15:00:12.452Z,24.95
2019-02-16T15:02:40.695Z,26.33
2019-02-16T15:05:09.596Z,26.77
2019-02-16T15:07:37.912Z,28.92
2019-02-16T15:10:11.535Z,26.52
2019-02-16T15:12:39.798Z,25.70
2019-02-16T15:15:10.859Z,32.60
2019-02-16T15:17:39.391Z,25.00
2019-02-16T15:20:10.454Z,24.43
2019-02-16T15:22:38.683Z,28.47
2019-02-16T15:25:10.974Z,26.77
2019-02-16T15:27:39.346Z,29.57
2019-02-16T15:30:18.989Z,29.40
2019-02-16T15:32:47.206Z,25.68
2019-02-16T15:35:15.635Z,27.48
2019-02-16T15:37:44.549Z,29.72
2019-02-16T15:40:14.655Z,25.20
2019-02-16T15:42:42.894Z,25.23
2019-02-16T15:45:16.012Z,27.67
2019-02-16T15:47:44.297Z,29.12
2019-02-16T15:50:15.569Z,28.12
2019-02-16T15:52:44.153Z,26.10
2019-02-16T15:55:12.663Z,25.37
2019-02-16T15:57:40.949Z,26.05
2019-02-16T16:00:14.677Z,47.15
2019-02-16T16:02:42.919Z,29.82
2019-02-16T16:05:11.181Z,31.70
2019-02-16T16:07:41.593Z,33.90
2019-02-16T16:10:17.458Z,31.20
2019-02-16T16:13:03.760Z,25.45
2019-02-16T16:15:42.392Z,28.70
2019-02-16T16:18:08.310Z,29.82
2019-02-16T16:20:38.198Z,25.90
2019-02-16T16:23:08.171Z,27.07
2019-02-16T16:25:39.667Z,34.98
2019-02-16T16:28:09.862Z,27.77
2019-02-16T16:30:39.786Z,22.62
2019-02-16T16:33:09.682Z,30.75
2019-02-16T16:35:55.830Z,25.32
2019-02-16T16:38:37.952Z,23.95
2019-02-16T16:43:59.308Z,34.92
2019-02-16T16:46:46.080Z,29.15
2019-02-16T16:49:20.008Z,29.75
2019-02-16T16:51:53.758Z,27.05
2019-02-16T16:54:26.596Z,29.63
2019-02-16T16:56:56.891Z,24.95
2019-02-16T16:59:35.633Z,27.07
2019-02-16T17:02:05.963Z,24.63
2019-02-16T17:04:43.886Z,30.30
2019-02-16T17:07:20.318Z,31.33
2019-02-16T17:09:50.214Z,26.02
2019-02-16T17:12:20.106Z,28.15
2019-02-16T17:14:50.120Z,30.55
2019-02-16T17:17:22.966Z,33.30
2019-02-16T17:19:53.156Z,30.85
2019-02-16T17:22:25.936Z,29.35
2019-02-16T17:24:55.934Z,34.92
2019-02-16T17:27:25.873Z,33.00
2019-02-16T17:29:59.593Z,29.90
2019-02-16T17:32:45.956Z,32.88
2019-02-16T17:35:32.317Z,34.15
2019-02-16T17:38:02.761Z,34.73
2019-02-16T17:40:32.650Z,45.90
2019-02-16T17:43:06.300Z,29.63
2019-02-16T17:45:39.039Z,33.33
2019-02-16T17:48:23.025Z,33.53
2019-02-16T17:51:07.878Z,38.23
2019-02-16T17:53:39.303Z,33.90
2019-02-16T17:56:14.910Z,39.00
2019-02-16T17:58:51.928Z,38.28
2019-02-16T18:01:21.814Z,54.45
2019-02-16T18:04:04.236Z,35.73
2019-02-16T18:06:43.078Z,38.73
2019-02-16T18:09:34.030Z,37.40
2019-02-16T18:12:17.040Z,38.42
2019-02-16T18:15:09.241Z,42.17
2019-02-16T18:17:39.141Z,41.65
2019-02-16T18:20:14.991Z,46.88
2019-02-16T18:22:53.722Z,48.92
2019-02-16T18:25:31.483Z,41.65
2019-02-16T18:28:04.273Z,41.48
2019-02-16T18:30:47.000Z,43.83
2019-02-16T18:33:20.026Z,43.75
2019-02-16T18:35:53.306Z,37.08
2019-02-16T18:38:27.000Z,46.90
2019-02-16T18:41:08.235Z,46.35
2019-02-16T18:43:50.128Z,48.00
2019-02-16T18:46:26.304Z,45.05
2019-02-16T18:48:56.489Z,67.53
2019-02-16T18:51:38.074Z,79.12
2019-02-16T18:54:23.846Z,98.62
2019-02-16T18:57:06.696Z,80.62
2019-02-16T18:59:37.825Z,68.17
2019-02-16T19:02:26.875Z,63.87
2019-02-16T19:04:58.239Z,64.87
2019-02-16T19:07:43.573Z,60.78
2019-02-16T19:10:16.789Z,63.35
2019-02-16T19:12:49.803Z,64.30
2019-02-16T19:15:25.350Z,71.92
2019-02-16T19:18:06.113Z,88.52
2019-02-16T19:20:55.599Z,67.25
2019-02-16T19:23:26.453Z,70.70
2019-02-16T19:26:02.443Z,73.30
2019-02-16T19:28:33.700Z,51.90
2019-02-16T19:31:13.547Z,59.08
2019-02-16T19:33:49.766Z,59.77
2019-02-16T19:36:22.435Z,59.58
2019-02-16T19:39:05.220Z,52.48
2019-02-16T19:41:51.589Z,54.60
2019-02-16T19:44:39.395Z,66.33
2019-02-16T19:47:25.381Z,66.57
2019-02-16T19:50:01.331Z,52.70
2019-02-16T19:52:47.450Z,50.70
2019-02-16T19:55:35.658Z,124.05
2019-02-16T19:58:17.795Z,176.82
2019-02-16T20:03:28.414Z,53.68
2019-02-16T20:06:14.784Z,68.75
2019-02-16T20:09:01.541Z,58.30
2019-02-16T20:11:47.562Z,57.03
2019-02-16T20:14:24.475Z,57.20
2019-02-16T20:16:57.217Z,57.20
2019-02-16T20:19:41.475Z,58.13
2019-02-16T20:22:11.420Z,102.67
2019-02-16T20:24:44.809Z,53.08
2019-02-16T20:27:19.356Z,53.05
2019-02-16T20:29:55.567Z,52.20
2019-02-16T20:32:25.520Z,59.88
2019-02-16T20:35:14.657Z,55.12
2019-02-16T20:37:44.548Z,54.55
2019-02-16T20:40:20.469Z,54.65
2019-02-16T20:42:53.344Z,52.85
2019-02-16T20:45:29.861Z,59.58
2019-02-16T20:48:03.469Z,56.55
2019-02-16T20:50:49.288Z,59.70
2019-02-16T20:53:34.214Z,55.23
2019-02-16T20:56:08.191Z,58.42
2019-02-16T20:58:43.552Z,45.05
2019-02-16T21:01:23.313Z,46.92
2019-02-16T21:03:56.910Z,44.23
2019-02-16T21:06:27.767Z,47.05
2019-02-16T21:08:57.914Z,44.08
2019-02-16T21:11:27.827Z,48.23
2019-02-16T21:14:00.785Z,43.52
2019-02-16T21:16:46.986Z,51.18
2019-02-16T21:19:17.274Z,57.20
2019-02-16T21:21:53.056Z,53.58
2019-02-16T21:24:38.098Z,59.50
2019-02-16T21:27:08.067Z,51.18
2019-02-16T21:29:37.951Z,44.67
2019-02-16T21:32:14.553Z,38.02
2019-02-16T21:34:46.418Z,46.70
2019-02-16T21:37:28.718Z,44.13
2019-02-16T21:42:49.059Z,38.20
2019-02-16T21:45:21.795Z,38.58
2019-02-16T21:47:55.098Z,42.58
2019-02-16T21:50:43.815Z,42.70
2019-02-16T21:53:21.518Z,41.08
2019-02-16T21:55:49.387Z,39.50
2019-02-16T21:58:26.810Z,44.15
2019-02-16T22:00:59.358Z,38.23
2019-02-16T22:03:38.309Z,39.03
2019-02-16T22:06:09.821Z,35.83
2019-02-16T22:08:54.884Z,43.60
2019-02-16T22:11:24.826Z,43.45
2019-02-16T22:13:53.107Z,40.83
2019-02-16T22:16:22.101Z,38.10
2019-02-16T22:18:50.372Z,39.08
2019-02-16T22:21:19.370Z,32.55
2019-02-16T22:23:48.110Z,37.13
2019-02-16T22:26:17.787Z,30.75
2019-02-16T22:28:46.027Z,32.65
2019-02-16T22:31:14.372Z,31.97
2019-02-16T22:33:42.618Z,35.58
2019-02-16T22:36:10.953Z,37.50
2019-02-16T22:38:39.697Z,32.33
2019-02-16T22:41:07.965Z,34.25
2019-02-16T22:43:36.268Z,39.92
2019-02-16T22:46:06.071Z,34.33
2019-02-16T22:48:34.300Z,39.73
2019-02-16T22:51:02.581Z,34.33
2019-02-16T22:53:31.602Z,43.98
2019-02-16T22:55:59.838Z,34.25
2019-02-16T22:58:29.179Z,34.60
2019-02-16T23:00:58.227Z,36.83
2019-02-16T23:03:26.486Z,32.30
2019-02-16T23:05:54.785Z,31.62
2019-02-16T23:08:24.441Z,32.48
2019-02-16T23:10:52.769Z,33.25
2019-02-16T23:13:20.997Z,30.70
2019-02-16T23:15:49.584Z,34.95
2019-02-16T23:18:18.009Z,32.30
2019-02-16T23:20:47.773Z,29.25
2019-02-16T23:23:16.178Z,35.05
2019-02-16T23:25:45.604Z,34.05
2019-02-16T23:28:13.868Z,34.15
2019-02-16T23:30:42.348Z,33.35
2019-02-16T23:33:12.013Z,33.42
2019-02-16T23:35:40.289Z,30.72
2019-02-16T23:38:08.602Z,35.17
2019-02-16T23:40:37.873Z,38.85
2019-02-16T23:43:06.113Z,34.15
2019-02-16T23:45:34.417Z,31.20
2019-02-16T23:48:02.834Z,35.23
2019-02-16T23:50:31.153Z,28.50
2019-02-16T23:52:59.388Z,33.83
2019-02-16T23:55:29.591Z,30.45
2019-02-16T23:57:59.492Z,36.58
